Atlanta, Georgia
Traffic Map
Current Weather Conditions
Atlanta, Georgia
Broken Clouds
Broken Clouds
21°
Feels Like: 21°
Wind Chill: 21° Ceiling: 25000
Heat Index: 21° Visibility: 10mi
Dew Point: Wind: 5mph
Humidity: 42% Direction: 120° (ESE)
Pressure: 30.13in Gusts: 0mph
Raw Report DataKATL 202352Z 12004KT 10SM BKN250 21/07 A3013 RMK AO2 SLP199 T02060072 10233 20200 58002
Traffic Incident Summary
Active as of:
Severity:
Category:
InformationThere was an issue retrieving the traffic information for this location. Please try a different location or try again shortly.
Advertisements
Track Severe Weather on mobile